Time;durP1;ratioP1;P1;durP2;ratioP2;P2;SDS_P1;SDS_P2;PMS_P1;PMS_P2;Temp;Humidity;BMP_temperature;BMP_pressure;BME280_temperature;BME280_humidity;BME280_pressure;Samples;Min_cycle;Max_cycle;Signal;HPM_P1;HPM_P2
2023/06/05 07:01:14;;;;;;;0.43;0.43;;;21.80;99.90;25.00;102007.00;;;;6275547;22;1464637;-68
2023/06/05 07:03:41;;;;;;;0.50;0.50;;;22.20;99.90;22.80;102111.00;;;;6287456;22;20168;-68
2023/06/05 07:06:11;;;;;;;0.10;0.10;;;21.20;99.90;25.60;102062.00;;;;6338366;22;20141;-68
2023/06/05 07:08:37;;;;;;;0.57;0.52;;;21.90;99.90;24.20;102096.00;;;;6337980;22;20143;-68
2023/06/05 07:11:03;;;;;;;0.22;0.22;;;21.90;99.90;23.70;102092.00;;;;6340724;22;20223;-68
2023/06/05 07:13:29;;;;;;;0.57;0.55;;;21.70;99.90;23.70;102111.00;;;;6311777;22;20201;-67
2023/06/05 07:15:55;;;;;;;0.52;0.52;;;21.30;99.90;25.00;102080.00;;;;6338542;22;20571;-67
2023/06/05 07:18:21;;;;;;;0.52;0.52;;;21.90;99.90;26.30;102060.00;;;;6286218;22;20159;-67
2023/06/05 07:20:47;;;;;;;0.52;0.52;;;22.80;99.90;23.00;102119.00;;;;6313065;22;20161;-67
2023/06/05 07:23:18;;;;;;;2.92;2.28;;;21.80;99.90;22.80;102132.00;;;;6339140;22;20164;-67
2023/06/05 07:25:47;;;;;;;1.95;1.85;;;21.00;99.90;24.30;102112.00;;;;6312810;22;20193;-67
2023/06/05 07:28:16;;;;;;;0.30;0.30;;;20.90;99.90;25.60;102083.00;;;;6312750;22;20156;-67
2023/06/05 07:30:43;;;;;;;2.38;2.25;;;22.20;99.90;26.60;102026.00;;;;6313167;22;20224;-67
2023/06/05 07:33:13;;;;;;;0.50;0.50;;;23.10;99.90;23.90;102058.00;;;;6312051;22;20156;-67
2023/06/05 07:35:39;;;;;;;0.20;0.20;;;22.60;99.90;25.00;102047.00;;;;6339023;22;20147;-67
2023/06/05 07:38:05;;;;;;;1.58;1.42;;;22.30;99.90;24.00;102122.00;;;;6340563;22;20144;-67
2023/06/05 07:40:31;;;;;;;1.65;0.93;;;22.10;99.90;25.00;102097.00;;;;6339852;22;20220;-67
2023/06/05 07:42:57;;;;;;;1.60;1.10;;;22.10;99.90;24.90;102089.00;;;;6312224;22;20613;-67
2023/06/05 07:45:23;;;;;;;0.50;0.50;;;22.40;99.90;24.30;102107.00;;;;6340036;22;20136;-67
2023/06/05 07:47:49;;;;;;;1.02;1.00;;;22.30;99.90;25.80;102078.00;;;;6286769;22;20147;-67
2023/06/05 07:50:15;;;;;;;0.52;0.35;;;22.70;99.90;25.90;102079.00;;;;6313056;22;20473;-67
2023/06/05 07:52:40;;;;;;;0.10;0.10;;;23.10;99.90;26.80;102039.00;;;;6313106;22;20151;-67
2023/06/05 07:55:07;;;;;;;2.25;0.93;;;23.20;99.90;25.10;102097.00;;;;6312821;22;20144;-67
2023/06/05 07:57:34;;;;;;;2.38;1.95;;;23.20;99.90;24.40;102112.00;;;;6312935;22;20155;-67
2023/06/05 08:00:00;;;;;;;4.43;1.15;;;22.70;99.90;25.00;102113.00;;;;6296841;22;20219;-67
2023/06/05 08:02:25;;;;;;;0.20;0.20;;;22.40;99.90;23.60;102149.00;;;;6308747;22;20540;-66
2023/06/05 08:04:55;;;;;;;1.15;1.05;;;21.70;99.90;23.00;102165.00;;;;6308860;22;20140;-67
2023/06/05 08:07:24;;;;;;;0.68;0.40;;;20.90;99.90;24.60;102151.00;;;;6255451;22;20157;-67
2023/06/05 08:09:52;;;;;;;0.20;0.20;;;21.10;99.90;25.60;102109.00;;;;6281511;22;20153;-67
2023/06/05 08:12:18;;;;;;;1.35;0.93;;;22.10;99.90;25.60;102095.00;;;;6282009;22;20144;-68
2023/06/05 08:14:45;;;;;;;0.60;0.60;;;23.00;99.90;26.80;102068.00;;;;6308868;22;20144;-67
2023/06/05 08:17:11;;;;;;;0.63;0.63;;;23.60;99.90;27.20;102050.00;;;;6281597;22;20141;-67
2023/06/05 08:19:37;;;;;;;0.10;0.10;;;23.90;99.90;26.60;102066.00;;;;6308918;22;20243;-67
2023/06/05 08:22:04;;;;;;;1.30;1.20;;;23.60;99.90;25.10;102057.00;;;;6280208;22;20171;-67
2023/06/05 08:24:36;;;;;;;0.65;0.52;;;23.30;99.90;26.00;102074.00;;;;6308902;22;20247;-67
2023/06/05 08:27:02;;;;;;;0.43;0.43;;;23.30;99.90;27.30;102019.00;;;;6308893;22;20140;-68
2023/06/05 08:29:30;;;;;;;1.50;1.02;;;24.10;99.90;27.50;102083.00;;;;6302178;22;20163;-67
2023/06/05 08:31:56;;;;;;;0.77;0.77;;;24.50;99.90;25.60;102104.00;;;;6255420;22;20160;-67
2023/06/05 08:34:24;;;;;;;1.08;0.90;;;23.40;99.90;24.50;102140.00;;;;6280297;22;20634;-68
2023/06/05 08:36:50;;;;;;;0.20;0.20;;;22.70;99.90;26.00;102103.00;;;;6281655;22;20151;-67
2023/06/05 08:39:16;;;;;;;0.65;0.65;;;23.20;99.90;25.40;102104.00;;;;6280978;22;20144;-67
2023/06/05 08:41:43;;;;;;;0.52;0.52;;;23.10;99.90;27.40;102076.00;;;;6279739;22;20206;-67
2023/06/05 08:44:17;;;;;;;1.48;1.27;;;23.90;99.90;25.00;102116.00;;;;6307955;22;20144;-67
2023/06/05 08:46:44;;;;;;;1.85;1.65;;;22.80;99.90;23.60;102127.00;;;;6280613;22;20147;-67
2023/06/05 08:49:12;;;;;;;0.43;0.43;;;22.40;99.90;26.60;102091.00;;;;6281522;22;20231;-67
2023/06/05 08:51:40;;;;;;;0.63;0.35;;;23.30;99.90;26.20;102092.00;;;;6280934;22;20145;-67
2023/06/05 08:54:12;;;;;;;2.42;1.10;;;23.40;99.90;25.50;102099.00;;;;6280639;22;20465;-67
2023/06/05 08:56:51;;;;;;;1.45;1.42;;;23.20;99.90;26.30;102080.00;;;;6280465;22;20132;-67
2023/06/05 08:59:43;;;;;;;0.10;0.10;;;23.40;99.90;26.00;102103.00;;;;6285773;22;20261;-68
2023/06/05 09:02:11;;;;;;;0.60;0.28;;;23.90;99.90;25.80;102097.00;;;;6311235;22;20171;-67
2023/06/05 09:04:39;;;;;;;0.30;0.30;;;23.20;99.90;25.00;102111.00;;;;6339374;22;20140;-67
2023/06/05 09:07:29;;;;;;;1.02;0.93;;;22.90;99.90;26.50;102091.00;;;;6339482;22;20147;-67
2023/06/05 09:10:05;;;;;;;0.40;0.40;;;23.30;99.90;27.50;102049.00;;;;6320735;22;20641;-67
2023/06/05 09:12:54;;;;;;;0.63;0.40;;;24.20;99.90;27.20;102072.00;;;;6311943;22;20159;-68
2023/06/05 09:15:36;;;;;;;3.70;2.05;;;24.70;99.90;25.40;102100.00;;;;6284284;22;20177;-67
2023/06/05 09:18:15;;;;;;;0.10;0.10;;;24.20;99.90;26.50;102080.00;;;;6311608;22;20156;-67
2023/06/05 09:20:47;;;;;;;0.82;0.82;;;23.60;99.90;24.60;102117.00;;;;6311310;22;20667;-73
2023/06/05 09:23:30;;;;;;;2.13;0.93;;;23.00;99.90;24.50;102138.00;;;;6339282;22;20174;-72
2023/06/05 09:26:15;;;;;;;3.20;1.25;;;22.40;99.90;26.10;102099.00;;;;6286758;22;20155;-69
2023/06/05 09:29:04;;;;;;;3.72;1.17;;;22.80;99.90;28.00;102041.00;;;;6338252;22;20163;-69
2023/06/05 09:31:43;;;;;;;0.52;0.52;;;24.10;99.90;26.40;102069.00;;;;6311182;22;20162;-69
2023/06/05 09:34:31;;;;;;;1.90;1.58;;;23.90;99.90;26.70;102081.00;;;;6260929;22;20166;-69
2023/06/05 09:37:34;;;;;;;0.35;0.35;;;24.70;99.90;25.10;102106.00;;;;6338606;22;20174;-73
2023/06/05 09:39:59;;;;;;;3.80;1.35;;;23.60;99.90;26.00;102100.00;;;;6311723;22;20171;-68
2023/06/05 09:42:37;;;;;;;1.02;0.93;;;23.00;99.90;28.60;102059.00;;;;6338174;22;20167;-67
2023/06/05 09:45:15;;;;;;;2.20;1.25;;;24.60;99.90;26.00;102097.00;;;;6338898;22;20552;-68
2023/06/05 09:48:34;;;;;;;0.43;0.43;;;24.40;99.90;27.10;102077.00;;;;6310913;22;20564;-68
2023/06/05 09:51:14;;;;;;;3.92;1.00;;;23.70;99.90;27.00;102086.00;;;;6338931;22;20212;-68
2023/06/05 09:53:49;;;;;;;0.10;0.10;;;24.10;99.90;26.30;102097.00;;;;6311378;22;20207;-67
2023/06/05 09:56:18;;;;;;;0.20;0.20;;;23.90;99.90;28.00;102073.00;;;;6285634;22;20446;-68
2023/06/05 09:58:51;;;;;;;4.25;1.00;;;24.30;99.90;28.00;102066.00;;;;6285300;22;20250;-68
2023/06/05 10:01:27;;;;;;;0.20;0.20;;;25.00;99.90;28.10;102063.00;;;;6280395;22;20144;-70
2023/06/05 10:04:03;;;;;;;3.45;2.13;;;25.20;99.90;25.90;102104.00;;;;6280420;22;20166;-68
2023/06/05 10:06:33;;;;;;;4.65;1.88;;;24.30;99.90;25.70;102103.00;;;;6254348;22;20741;-69
2023/06/05 10:09:00;;;;;;;0.47;0.47;;;23.90;99.90;27.20;102081.00;;;;6280677;22;20148;-69
2023/06/05 10:11:27;;;;;;;0.30;0.30;;;24.00;99.90;28.30;102066.00;;;;6280140;22;20551;-68
2023/06/05 10:13:59;;;;;;;0.10;0.10;;;24.70;99.90;28.10;102067.00;;;;6307106;22;20595;-69
2023/06/05 10:16:34;;;;;;;0.90;0.50;;;24.90;99.90;27.20;102064.00;;;;6281223;22;20145;-70
2023/06/05 10:19:18;;;;;;;0.32;0.32;;;25.20;99.90;25.70;102103.00;;;;6280624;22;20464;-68
2023/06/05 10:34:17;;;;;;;0.13;0.13;;;23.50;99.90;26.90;102073.00;;;;5070318;28;20551;-74
2023/06/05 10:37:32;;;;;;;1.67;1.35;;;23.80;99.90;28.00;102069.00;;;;5042669;28;20205;-70
2023/06/05 10:40:09;;;;;;;1.50;1.35;;;25.00;99.90;25.90;102092.00;;;;5042491;28;20204;-69
2023/06/05 10:42:39;;;;;;;2.58;1.80;;;24.30;99.90;25.70;102108.00;;;;5036712;28;20603;-69
2023/06/05 10:45:06;;;;;;;0.30;0.30;;;23.90;99.90;26.20;102099.00;;;;5038669;28;20675;-69
2023/06/05 10:48:13;;;;;;;4.75;1.35;;;23.60;99.90;27.20;102068.00;;;;5045530;28;20231;-70
2023/06/05 10:50:38;;;;;;;1.58;1.48;;;24.10;99.90;27.80;102038.00;;;;5023076;28;20186;-70
2023/06/05 10:53:47;;;;;;;0.63;0.63;;;24.70;99.90;29.30;102035.00;;;;5031807;28;20559;-70
2023/06/05 10:56:51;;;;;;;0.30;0.30;;;25.40;99.90;27.60;102054.00;;;;5044258;28;20220;-69
2023/06/05 10:59:20;;;;;;;2.40;2.08;;;25.40;99.90;26.90;102068.00;;;;5049703;28;20656;-70
2023/06/05 11:02:21;;;;;;;4.13;1.98;;;24.70;99.90;26.30;102077.00;;;;5037669;28;20265;-69
2023/06/05 11:05:14;;;;;;;2.03;1.77;;;24.40;99.90;24.90;102089.00;;;;5063031;28;20575;-69
2023/06/05 11:07:40;;;;;;;0.70;0.70;;;23.70;99.90;27.90;102020.00;;;;5047438;28;20204;-70
2023/06/05 11:10:26;;;;;;;0.47;0.47;;;24.40;99.90;28.20;102035.00;;;;5048674;28;20190;-70
2023/06/05 11:12:51;;;;;;;0.52;0.52;;;25.30;99.90;29.00;102025.00;;;;5080465;28;20198;-71
2023/06/05 11:15:40;;;;;;;0.13;0.13;;;26.30;99.90;29.50;102003.00;;;;5048551;28;20213;-71
2023/06/05 11:18:34;;;;;;;0.10;0.10;;;26.70;99.90;28.60;102025.00;;;;5044206;28;20175;-71
2023/06/05 11:21:04;;;;;;;0.20;0.20;;;26.00;99.90;30.40;102004.00;;;;5038951;28;20717;-71
2023/06/05 11:23:31;;;;;;;3.63;1.25;;;27.00;99.90;27.10;102030.00;;;;5048396;28;20265;-71
2023/06/05 11:26:37;;;;;;;1.75;1.50;;;26.00;99.90;27.30;102039.00;;;;5047939;28;20183;-71
2023/06/05 11:29:12;;;;;;;0.35;0.35;;;25.30;99.90;28.20;101997.00;;;;5045413;28;20206;-71
2023/06/05 11:31:38;;;;;;;2.10;1.83;;;25.70;99.90;27.20;102040.00;;;;5047094;28;20304;-71
2023/06/05 11:34:14;;;;;;;1.50;1.40;;;25.50;99.90;27.70;102043.00;;;;5048097;28;20194;-71
2023/06/05 11:36:41;;;;;;;1.35;1.25;;;25.40;99.90;28.30;101991.00;;;;5044421;28;20192;-70
2023/06/05 11:39:12;;;;;;;2.33;1.75;;;25.60;99.90;29.90;101970.00;;;;5064631;28;20182;-72
2023/06/05 11:41:50;;;;;;;0.63;0.63;;;26.70;99.90;27.00;102033.00;;;;5047433;28;20269;-71
2023/06/05 11:44:35;;;;;;;2.80;1.70;;;25.40;99.90;26.60;102046.00;;;;5035720;28;20675;-71
2023/06/05 11:47:39;;;;;;;2.30;1.80;;;25.10;99.90;26.20;102065.00;;;;5034314;28;20182;-70
2023/06/05 11:50:13;;;;;;;5.03;3.13;;;24.50;99.90;26.70;102059.00;;;;5010575;28;20186;-71
2023/06/05 11:52:40;;;;;;;0.50;0.50;;;24.30;99.90;26.60;102045.00;;;;5028426;28;20624;-70
2023/06/05 11:55:22;;;;;;;1.10;0.90;;;24.20;99.90;26.30;102047.00;;;;5030759;28;20187;-70
2023/06/05 11:57:49;;;;;;;0.95;0.95;;;24.10;99.90;28.30;102034.00;;;;5031396;28;20651;-71
2023/06/05 12:00:32;;;;;;;0.77;0.68;;;24.70;99.90;27.50;102033.00;;;;5034848;28;20248;-70
2023/06/05 12:03:00;;;;;;;1.08;1.02;;;25.20;99.90;27.90;102025.00;;;;5017028;28;20191;-70
2023/06/05 12:05:31;;;;;;;1.40;1.30;;;24.80;99.90;27.80;102031.00;;;;5034422;28;20209;-70
2023/06/05 12:08:32;;;;;;;0.50;0.50;;;25.30;99.90;27.20;102023.00;;;;5034145;28;20183;-71
2023/06/05 12:11:20;;;;;;;4.25;2.05;;;24.70;99.90;25.80;102046.00;;;;5023798;28;20186;-71
2023/06/05 12:13:56;;;;;;;0.20;0.20;;;24.20;99.90;27.90;101999.00;;;;5040749;28;20187;-69
2023/06/05 12:16:44;;;;;;;0.43;0.43;;;24.60;99.90;28.10;102012.00;;;;5034117;28;20201;-69
2023/06/05 12:19:16;;;;;;;0.60;0.57;;;24.60;99.90;27.30;102000.00;;;;5041100;28;20194;-70
2023/06/05 12:21:48;;;;;;;0.40;0.40;;;24.80;99.90;27.20;102034.00;;;;5024600;28;20190;-70
2023/06/05 12:24:15;;;;;;;0.10;0.10;;;24.40;99.90;27.50;102019.00;;;;5040116;28;20186;-69
2023/06/05 12:26:59;;;;;;;1.08;0.75;;;24.70;99.90;26.90;102006.00;;;;5041313;28;20640;-72
2023/06/05 12:29:31;;;;;;;0.63;0.20;;;24.60;99.90;27.50;102023.00;;;;5041524;28;20186;-73
2023/06/05 12:32:02;;;;;;;0.77;0.77;;;24.50;99.90;26.90;102006.00;;;;5044435;28;20276;-71
2023/06/05 12:35:21;;;;;;;2.63;0.75;;;24.40;99.90;26.90;102026.00;;;;5027397;28;20207;-70
2023/06/05 12:38:03;;;;;;;1.17;0.65;;;24.00;99.90;27.60;102020.00;;;;5034872;28;20277;-70
2023/06/05 12:40:36;;;;;;;1.55;1.30;;;24.40;99.90;27.80;102008.00;;;;5025260;28;20185;-71
2023/06/05 12:43:17;;;;;;;2.20;1.10;;;24.40;99.90;28.20;102002.00;;;;5074671;28;20549;-70
2023/06/05 12:46:05;;;;;;;1.00;0.93;;;24.60;99.90;26.20;102017.00;;;;5041831;28;20604;-69
2023/06/05 12:48:31;;;;;;;0.85;0.85;;;23.90;99.90;27.10;102017.00;;;;5075030;28;20191;-71
2023/06/05 12:50:58;;;;;;;1.17;0.43;;;24.00;99.90;27.30;102020.00;;;;5042232;28;20236;-71
2023/06/05 12:53:25;;;;;;;3.30;2.70;;;24.20;99.90;27.10;101993.00;;;;5026034;28;20221;-72
2023/06/05 12:56:08;;;;;;;0.90;0.82;;;24.20;99.90;27.40;101968.00;;;;5041411;28;20178;-71
2023/06/05 12:59:03;;;;;;;1.48;1.38;;;24.30;99.90;27.00;101999.00;;;;5036687;28;20183;-71
2023/06/05 13:01:59;;;;;;;2.80;2.17;;;24.20;99.90;27.00;102000.00;;;;5024655;28;20227;-70
2023/06/05 13:04:56;;;;;;;1.33;0.70;;;24.10;99.90;26.30;102019.00;;;;5021645;28;20301;-69
2023/06/05 13:08:13;;;;;;;1.40;0.77;;;23.90;99.90;27.50;102002.00;;;;5035733;28;20667;-69
2023/06/05 13:11:22;;;;;;;1.77;1.65;;;23.90;99.90;27.20;101997.00;;;;5040727;28;20290;-68
2023/06/05 13:14:26;;;;;;;0.40;0.40;;;24.50;99.90;26.60;101998.00;;;;5073119;28;20210;-69
2023/06/05 13:17:35;;;;;;;1.48;1.38;;;24.10;99.90;27.00;101997.00;;;;5037116;28;20220;-69
2023/06/05 13:20:47;;;;;;;3.17;1.52;;;24.00;99.90;27.10;101996.00;;;;5035554;28;20484;-69
2023/06/05 13:23:42;;;;;;;0.30;0.30;;;24.00;99.90;28.50;101954.00;;;;5022134;28;20352;-69
2023/06/05 13:26:33;;;;;;;1.65;0.95;;;24.70;99.90;27.70;101967.00;;;;5012685;28;20568;-70
2023/06/05 13:29:27;;;;;;;1.40;1.13;;;24.70;99.90;27.30;101975.00;;;;4985867;28;20203;-70
2023/06/05 13:32:17;;;;;;;1.38;1.27;;;24.60;99.90;26.70;101964.00;;;;5025464;28;20230;-69
2023/06/05 13:35:21;;;;;;;1.77;1.67;;;24.40;99.90;26.50;101990.00;;;;5034681;28;20248;-69
2023/06/05 13:38:18;;;;;;;1.48;1.05;;;24.20;99.90;26.50;101997.00;;;;5012914;28;20191;-69
2023/06/05 13:41:10;;;;;;;0.85;0.82;;;24.00;99.90;27.10;101984.00;;;;5018817;28;20237;-70
2023/06/05 13:44:14;;;;;;;1.75;1.13;;;24.10;99.90;26.90;101940.00;;;;4971953;28;20220;-70
2023/06/05 13:47:09;;;;;;;0.70;0.52;;;24.20;99.90;28.10;101965.00;;;;4988736;28;20204;-70
2023/06/05 13:50:28;;;;;;;0.35;0.35;;;24.30;99.90;28.50;101955.00;;;;5024752;28;20194;-70
2023/06/05 13:53:12;;;;;;;2.83;1.02;;;24.60;99.90;27.60;101954.00;;;;5034224;28;20199;-70
2023/06/05 13:56:22;;;;;;;0.45;0.45;;;24.90;99.90;27.10;101964.00;;;;5031634;28;20186;-69
2023/06/05 13:59:18;;;;;;;0.30;0.30;;;24.40;99.90;27.30;101962.00;;;;5058579;28;20190;-69
2023/06/05 14:01:53;;;;;;;1.42;1.33;;;24.40;99.90;27.50;101949.00;;;;5029066;28;20203;-73
2023/06/05 14:04:42;;;;;;;0.10;0.10;;;24.30;99.90;27.30;101953.00;;;;5030635;28;20705;-71
2023/06/05 14:07:38;;;;;;;1.13;1.00;;;24.30;99.90;27.00;101953.00;;;;5025359;28;20211;-71
2023/06/05 14:10:37;;;;;;;0.77;0.75;;;24.30;99.90;27.00;101951.00;;;;5027798;28;20195;-71
2023/06/05 14:13:33;;;;;;;0.50;0.50;;;24.00;99.90;27.10;101936.00;;;;5022351;28;20246;-71
2023/06/05 14:16:25;;;;;;;0.70;0.70;;;24.10;99.90;26.70;101969.00;;;;5028644;28;20249;-71
2023/06/05 14:19:03;;;;;;;1.45;1.13;;;24.20;99.90;26.60;101957.00;;;;5031861;28;20578;-69
2023/06/05 14:22:02;;;;;;;0.10;0.10;;;24.00;99.90;26.50;101962.00;;;;5031899;28;20210;-70
2023/06/05 14:24:28;;;;;;;0.40;0.40;;;23.80;99.90;27.10;101943.00;;;;5026302;28;20191;-71
2023/06/05 14:27:05;;;;;;;0.65;0.63;;;23.90;99.90;26.20;101970.00;;;;5031460;28;20203;-71
2023/06/05 14:29:31;;;;;;;0.95;0.60;;;23.70;99.90;27.10;101939.00;;;;5015342;28;20226;-72
2023/06/05 14:31:56;;;;;;;1.25;0.65;;;23.80;99.90;27.30;101935.00;;;;5033349;28;20273;-73
2023/06/05 14:34:30;;;;;;;0.45;0.45;;;24.10;99.90;26.50;101958.00;;;;5013643;28;20178;-72
2023/06/05 14:37:25;;;;;;;0.90;0.63;;;23.80;99.90;27.00;101961.00;;;;5031370;28;20542;-70
2023/06/05 14:40:07;;;;;;;0.32;0.32;;;23.90;99.90;26.30;101977.00;;;;5022968;28;20244;-72
2023/06/05 14:42:59;;;;;;;0.73;0.73;;;23.60;99.90;27.40;101944.00;;;;5032217;28;20274;-72
2023/06/05 14:46:10;;;;;;;1.20;0.95;;;23.80;99.90;27.00;101953.00;;;;5026213;28;20190;-71
2023/06/05 14:49:08;;;;;;;4.15;1.38;;;24.10;99.90;26.60;101973.00;;;;5022234;28;20197;-71
2023/06/05 14:51:55;;;;;;;0.52;0.52;;;23.90;99.90;26.30;101972.00;;;;5041030;28;20254;-71
2023/06/05 14:54:24;;;;;;;2.40;1.50;;;23.50;99.90;26.50;101969.00;;;;5040322;28;20186;-71
2023/06/05 14:56:51;;;;;;;0.93;0.85;;;23.50;99.90;26.70;101963.00;;;;5042326;28;20178;-71
2023/06/05 14:59:38;;;;;;;0.40;0.40;;;23.70;99.90;26.50;101973.00;;;;5039835;28;20197;-71
2023/06/05 15:02:04;;;;;;;2.90;1.45;;;23.60;99.90;26.20;101976.00;;;;5036679;28;20199;-71
2023/06/05 15:04:58;;;;;;;1.05;0.98;;;23.20;99.90;26.00;101975.00;;;;5036740;28;20519;-71
2023/06/05 15:07:47;;;;;;;1.73;0.65;;;23.10;99.90;26.30;101963.00;;;;5041880;28;20186;-71
2023/06/05 15:10:38;;;;;;;1.40;0.88;;;23.10;99.90;26.50;101906.00;;;;5023213;28;20201;-71
2023/06/05 15:13:32;;;;;;;0.45;0.45;;;23.30;99.90;26.80;101965.00;;;;5039394;28;20277;-71
2023/06/05 15:15:59;;;;;;;0.63;0.63;;;23.40;99.90;25.70;101984.00;;;;5039974;28;20271;-71
2023/06/05 15:18:26;;;;;;;0.63;0.60;;;23.20;99.90;26.00;101991.00;;;;5042131;28;20600;-71
2023/06/05 15:21:30;;;;;;;0.50;0.50;;;23.00;99.90;25.80;101987.00;;;;5041315;28;20195;-71
2023/06/05 15:24:23;;;;;;;1.70;1.02;;;23.00;99.90;25.40;102002.00;;;;5039855;28;20215;-71
2023/06/05 15:26:49;;;;;;;0.43;0.43;;;22.70;99.90;25.30;102000.00;;;;5040024;28;20186;-72
2023/06/05 15:29:53;;;;;;;1.17;0.65;;;22.70;99.90;26.00;101986.00;;;;5043222;28;20531;-71
2023/06/05 15:32:45;;;;;;;18.92;1.02;;;22.70;99.90;25.60;101996.00;;;;5018548;28;20218;-71
2023/06/05 15:35:43;;;;;;;0.60;0.60;;;22.70;99.90;25.20;101994.00;;;;5013543;28;20195;-71
2023/06/05 15:38:38;;;;;;;1.48;1.38;;;22.50;99.90;25.60;101986.00;;;;4997942;28;20277;-70
2023/06/05 15:41:32;;;;;;;1.13;0.90;;;22.60;99.90;25.60;101995.00;;;;5023361;28;20654;-71
2023/06/05 15:44:22;;;;;;;0.22;0.22;;;22.50;99.90;26.10;101946.00;;;;4975171;28;20631;-70
2023/06/05 15:47:13;;;;;;;1.20;0.35;;;22.60;99.90;25.50;101995.00;;;;4993901;28;20192;-71
2023/06/05 15:50:05;;;;;;;0.90;0.63;;;22.50;99.90;26.10;101974.00;;;;5022882;28;20195;-71
2023/06/05 15:53:09;;;;;;;2.55;0.98;;;22.70;99.90;25.70;101993.00;;;;5021952;28;20228;-71
2023/06/05 15:56:07;;;;;;;0.20;0.20;;;22.50;99.90;25.00;101995.00;;;;5024063;28;20267;-71
2023/06/05 15:59:02;;;;;;;2.42;0.60;;;22.20;99.90;24.90;101982.00;;;;5013806;28;20324;-71
2023/06/05 16:01:51;;;;;;;3.75;1.48;;;22.20;99.90;24.50;101997.00;;;;5021242;28;20270;-71
2023/06/05 16:04:42;;;;;;;0.68;0.52;;;22.10;99.90;25.10;101972.00;;;;5016276;28;20218;-71
2023/06/05 16:07:45;;;;;;;1.52;1.27;;;22.20;99.90;24.70;101983.00;;;;5029686;28;20171;-72
2023/06/05 16:10:55;;;;;;;0.60;0.60;;;22.00;99.90;25.30;101986.00;;;;5016284;28;20645;-71
2023/06/05 16:14:16;;;;;;;18.02;0.98;;;22.00;99.90;25.20;101981.00;;;;5020200;28;20191;-71
2023/06/05 16:17:05;;;;;;;1.60;1.50;;;22.10;99.90;25.30;101934.00;;;;5027374;28;20187;-70
2023/06/05 16:20:03;;;;;;;3.55;2.45;;;21.90;99.90;24.20;101938.00;;;;5066942;28;20244;-71
2023/06/05 16:22:55;;;;;;;3.88;1.25;;;21.80;99.90;24.80;101972.00;;;;5030354;28;20285;-71
2023/06/05 16:26:07;;;;;;;0.90;0.60;;;21.70;99.90;24.80;101977.00;;;;5020320;28;20414;-70
2023/06/05 16:29:11;;;;;;;0.65;0.65;;;21.70;99.90;24.70;101964.00;;;;5027786;28;20545;-71
2023/06/05 16:32:05;;;;;;;2.20;1.17;;;21.60;99.90;23.90;101973.00;;;;5030152;28;20234;-71
2023/06/05 16:34:56;;;;;;;1.88;1.02;;;21.50;99.90;24.40;101960.00;;;;5033868;28;20214;-71
2023/06/05 16:37:49;;;;;;;0.65;0.45;;;21.30;99.90;24.70;101948.00;;;;5059786;28;20187;-71
2023/06/05 16:40:38;;;;;;;2.35;1.45;;;21.60;99.90;23.90;101964.00;;;;5023922;28;20198;-70
2023/06/05 16:43:30;;;;;;;0.63;0.47;;;21.30;99.90;24.00;101940.00;;;;5039943;28;20213;-71
2023/06/05 16:45:55;;;;;;;0.40;0.40;;;21.20;99.90;24.10;101945.00;;;;5042859;28;20662;-71
2023/06/05 16:48:22;;;;;;;4.70;1.40;;;21.30;99.90;23.90;101943.00;;;;5042465;28;20301;-70
2023/06/05 16:50:51;;;;;;;5.53;2.20;;;21.10;99.90;23.40;101903.00;;;;5042413;28;20179;-70
2023/06/05 16:54:06;;;;;;;6.93;1.98;;;21.00;99.90;23.50;101924.00;;;;5053617;28;20290;-71
2023/06/05 16:56:55;;;;;;;2.30;2.10;;;21.00;99.90;23.60;101911.00;;;;5023972;28;20542;-72
2023/06/05 16:59:46;;;;;;;0.40;0.30;;;20.90;99.90;23.50;101895.00;;;;5027114;28;20199;-70
2023/06/05 17:02:12;;;;;;;1.52;1.27;;;20.80;99.90;23.60;101891.00;;;;5033207;28;20198;-70
2023/06/05 17:04:40;;;;;;;1.25;1.15;;;20.80;99.90;23.40;101914.00;;;;5034333;28;20187;-70
2023/06/05 17:07:06;;;;;;;4.38;0.93;;;20.80;99.90;22.70;101898.00;;;;5033793;28;20657;-70
2023/06/05 17:09:35;;;;;;;0.93;0.90;;;20.50;99.90;22.30;101875.00;;;;5032042;28;20189;-72
2023/06/05 17:12:05;;;;;;;1.15;1.05;;;20.30;99.90;22.70;101815.00;;;;5033181;28;20205;-70
2023/06/05 17:14:31;;;;;;;0.40;0.40;;;20.20;99.90;23.40;101855.00;;;;5015463;28;20649;-70
2023/06/05 17:17:00;;;;;;;5.75;5.25;;;20.30;99.90;23.00;101886.00;;;;5032484;28;20238;-70
2023/06/05 17:19:26;;;;;;;0.20;0.20;;;20.50;99.90;23.50;101855.00;;;;5032035;28;20242;-70
2023/06/05 17:21:53;;;;;;;8.50;2.47;;;20.50;99.90;24.30;101884.00;;;;5032501;28;20210;-70
2023/06/05 17:24:22;;;;;;;1.67;1.58;;;20.90;99.90;22.90;101886.00;;;;5031858;28;20183;-70
2023/06/05 17:26:51;;;;;;;2.65;1.75;;;20.50;99.90;22.70;101823.00;;;;5032964;28;20198;-70
2023/06/05 17:29:20;;;;;;;1.15;1.10;;;20.30;99.90;23.00;101874.00;;;;5031977;28;20183;-70
2023/06/05 17:31:51;;;;;;;0.15;0.15;;;20.50;99.90;23.00;101858.00;;;;5033612;28;20215;-70
2023/06/05 17:34:18;;;;;;;1.75;1.65;;;20.40;99.90;23.40;101830.00;;;;5025766;28;20198;-70
2023/06/05 17:37:09;;;;;;;2.88;1.60;;;20.60;99.90;23.90;101843.00;;;;5032398;28;20709;-70
2023/06/05 17:39:47;;;;;;;8.95;0.80;;;20.80;99.90;22.80;101886.00;;;;5039718;28;20194;-70
2023/06/05 17:42:13;;;;;;;2.10;1.48;;;20.40;99.90;22.80;101872.00;;;;5031257;28;20194;-70
2023/06/05 17:44:42;;;;;;;1.27;0.73;;;20.30;99.90;22.90;101851.00;;;;5032400;28;20272;-70
2023/06/05 17:47:48;;;;;;;1.25;1.20;;;20.20;99.90;22.90;101859.00;;;;5021002;28;20213;-77
2023/06/05 17:50:25;;;;;;;0.88;0.88;;;20.10;99.90;22.40;101853.00;;;;5029765;28;20204;-72
2023/06/05 17:53:34;;;;;;;3.08;2.08;;;19.90;99.90;22.30;101795.00;;;;5033039;28;20262;-71
2023/06/05 17:56:06;;;;;;;6.30;1.98;;;19.80;99.90;21.30;101830.00;;;;5032238;28;20186;-71
2023/06/05 17:58:43;;;;;;;0.38;0.38;;;19.50;99.90;22.10;101831.00;;;;5032171;28;20281;-70
2023/06/05 18:01:35;;;;;;;1.75;1.65;;;19.60;99.90;21.60;101833.00;;;;5032983;28;20186;-71
2023/06/05 18:04:10;;;;;;;1.83;1.00;;;19.50;99.90;21.40;101825.00;;;;4990727;28;20300;-74
2023/06/05 18:06:37;;;;;;;0.30;0.30;;;19.40;99.90;21.90;101823.00;;;;5028581;28;20692;-70
2023/06/05 18:09:13;;;;;;;0.50;0.50;;;19.30;99.90;22.00;101831.00;;;;5037866;28;20192;-70
2023/06/05 18:12:08;;;;;;;0.63;0.43;;;19.50;99.90;22.20;101828.00;;;;5039106;28;20217;-71
2023/06/05 18:15:01;;;;;;;2.13;1.85;;;19.40;99.90;21.60;101816.00;;;;5023330;28;20214;-70
2023/06/05 18:17:50;;;;;;;1.50;0.70;;;19.50;99.90;21.40;101813.00;;;;5015689;28;20313;-71
2023/06/05 18:20:42;;;;;;;2.50;0.88;;;19.20;99.90;21.90;101816.00;;;;4952830;28;20243;-70
2023/06/05 18:23:38;;;;;;;0.70;0.70;;;19.20;99.90;22.10;101827.00;;;;4985508;28;20213;-70
2023/06/05 18:26:36;;;;;;;4.15;1.98;;;19.30;99.90;21.70;101822.00;;;;5031846;28;20359;-70
2023/06/05 18:29:15;;;;;;;0.50;0.50;;;19.20;99.90;21.70;101809.00;;;;5035177;28;20205;-71
2023/06/05 18:32:14;;;;;;;2.33;0.60;;;19.10;99.90;22.00;101825.00;;;;5040171;28;20210;-71
2023/06/05 18:35:23;;;;;;;1.70;1.43;;;19.10;99.90;21.50;101823.00;;;;5041999;28;20532;-70
2023/06/05 18:38:17;;;;;;;1.87;1.33;;;19.00;99.90;20.80;101818.00;;;;5035771;28;20197;-71
2023/06/05 18:41:13;;;;;;;0.30;0.30;;;18.80;99.90;21.90;101823.00;;;;5019361;28;20250;-71
2023/06/05 18:44:02;;;;;;;0.40;0.40;;;18.90;99.90;21.70;101803.00;;;;5034018;28;20233;-71
2023/06/05 18:47:05;;;;;;;0.10;0.10;;;18.90;99.90;22.60;101831.00;;;;5029473;28;20207;-71
2023/06/05 18:50:12;;;;;;;1.13;1.07;;;19.10;99.90;21.70;101835.00;;;;5031997;28;20210;-71
2023/06/05 18:52:59;;;;;;;0.22;0.22;;;19.10;99.90;21.10;101817.00;;;;5037376;28;20562;-70
2023/06/05 18:55:47;;;;;;;0.30;0.30;;;18.70;99.90;21.20;101833.00;;;;5037452;28;20228;-70
2023/06/05 18:58:26;;;;;;;0.10;0.10;;;18.60;99.90;21.20;101826.00;;;;5040892;28;20187;-70
2023/06/05 19:01:14;;;;;;;0.20;0.20;;;18.50;99.90;21.70;101833.00;;;;5041489;28;20196;-71
2023/06/05 19:03:54;;;;;;;1.53;1.43;;;18.70;99.90;21.50;101846.00;;;;5059312;28;20189;-71